createdAt,value
2023-05-01T00:02:23.192Z,64.69
2023-05-01T00:07:25.438Z,64.47
2023-05-01T00:12:26.933Z,64.68
2023-05-01T00:17:28.415Z,64.69
2023-05-01T00:22:30.469Z,64.89
2023-05-01T00:27:31.957Z,64.68
2023-05-01T00:32:34.504Z,65.48
2023-05-01T00:37:36.105Z,65.54
2023-05-01T00:42:39.511Z,65.59
2023-05-01T00:47:41.347Z,65.73
2023-05-01T00:52:42.838Z,66.24
2023-05-01T00:57:44.294Z,66.36
2023-05-01T01:02:46.632Z,66.85
2023-05-01T01:07:55.803Z,66.95
2023-05-01T01:13:20.326Z,67.10
2023-05-01T01:18:33.058Z,67.33
2023-05-01T01:23:49.542Z,67.46
2023-05-01T01:29:15.095Z,67.48
2023-05-01T01:34:22.957Z,67.79
2023-05-01T01:39:35.433Z,67.99
2023-05-01T01:44:47.518Z,67.93
2023-05-01T01:49:52.959Z,68.40
2023-05-01T01:54:58.696Z,68.43
2023-05-01T02:00:00.285Z,68.89
2023-05-01T02:05:02.499Z,68.76
2023-05-01T02:10:05.970Z,68.77
2023-05-01T02:15:09.799Z,68.88
2023-05-01T02:20:13.061Z,69.00
2023-05-01T02:25:15.461Z,68.89
2023-05-01T02:30:18.761Z,68.94
2023-05-01T02:35:20.313Z,69.32
2023-05-01T02:40:22.023Z,69.41
2023-05-01T02:45:25.152Z,69.75
2023-05-01T02:50:27.387Z,69.92
2023-05-01T02:55:29.309Z,69.97
2023-05-01T03:00:30.743Z,69.96
2023-05-01T03:05:32.161Z,70.24
2023-05-01T03:10:34.440Z,69.92
2023-05-01T03:15:36.349Z,70.05
2023-05-01T03:20:37.809Z,70.10
2023-05-01T03:25:39.217Z,70.43
2023-05-01T03:30:40.792Z,70.50
2023-05-01T03:35:42.664Z,70.56
2023-05-01T03:40:44.460Z,70.52
2023-05-01T03:45:46.077Z,70.54
2023-05-01T03:50:47.696Z,70.79
2023-05-01T03:55:49.607Z,71.07
2023-05-01T04:00:51.132Z,71.29
2023-05-01T04:05:53.014Z,71.43
2023-05-01T04:10:54.469Z,71.50
2023-05-01T04:15:57.805Z,71.71
2023-05-01T04:20:59.389Z,71.61
2023-05-01T04:26:00.896Z,71.37
2023-05-01T04:31:02.358Z,71.71
2023-05-01T04:36:04.032Z,71.93
2023-05-01T04:41:06.277Z,71.73
2023-05-01T04:46:07.734Z,72.13
2023-05-01T04:51:09.173Z,72.13
2023-05-01T04:56:10.661Z,71.71
2023-05-01T05:01:12.338Z,71.35
2023-05-01T05:06:13.775Z,70.44
2023-05-01T05:11:15.204Z,70.16
2023-05-01T05:16:16.944Z,69.52
2023-05-01T05:21:18.370Z,69.40
2023-05-01T05:26:19.885Z,69.39
2023-05-01T05:31:21.424Z,69.55
2023-05-01T05:36:22.905Z,67.56
2023-05-01T05:41:24.381Z,67.91
2023-05-01T05:46:26.404Z,67.85
2023-05-01T05:51:28.141Z,66.49
2023-05-01T05:56:29.577Z,65.91
2023-05-01T06:01:31.046Z,65.83
2023-05-01T06:06:33.790Z,64.52
2023-05-01T06:11:35.327Z,63.83
2023-05-01T06:16:38.021Z,62.34
2023-05-01T06:21:39.698Z,61.21
2023-05-01T06:26:41.157Z,60.08
2023-05-01T06:31:42.637Z,57.15
2023-05-01T06:36:44.136Z,56.83
2023-05-01T06:41:47.397Z,56.09
2023-05-01T06:46:48.932Z,53.01
2023-05-01T06:51:51.296Z,53.51
2023-05-01T06:56:53.699Z,53.47
2023-05-01T07:01:55.162Z,52.65
2023-05-01T07:06:57.090Z,52.96
2023-05-01T07:11:58.851Z,51.98
2023-05-01T07:17:00.507Z,52.40
2023-05-01T07:22:03.223Z,49.90
2023-05-01T07:27:04.716Z,49.39
2023-05-01T07:32:07.267Z,50.60
2023-05-01T07:37:08.779Z,50.17
2023-05-01T07:42:10.373Z,49.11
2023-05-01T07:47:11.849Z,49.22
2023-05-01T07:52:13.422Z,47.21
2023-05-01T07:57:14.907Z,47.44
2023-05-01T08:02:17.690Z,46.20
2023-05-01T08:07:19.370Z,45.89
2023-05-01T08:12:20.783Z,44.69
2023-05-01T08:17:22.253Z,44.35
2023-05-01T08:22:23.966Z,42.07
2023-05-01T08:27:26.423Z,42.15
2023-05-01T08:32:27.872Z,42.47
2023-05-01T08:37:29.815Z,43.09
2023-05-01T08:42:32.423Z,42.92
2023-05-01T08:47:38.540Z,40.63
2023-05-01T08:52:43.834Z,42.92
2023-05-01T08:57:49.134Z,41.66
2023-05-01T09:02:52.041Z,40.87
2023-05-01T09:07:55.191Z,40.48
2023-05-01T09:13:00.793Z,41.01
2023-05-01T09:18:03.873Z,40.04
2023-05-01T09:23:06.505Z,39.13
2023-05-01T09:28:08.026Z,40.33
2023-05-01T09:33:13.640Z,40.87
2023-05-01T09:38:20.762Z,40.94
2023-05-01T09:43:29.561Z,41.20
2023-05-01T09:48:34.808Z,39.24
2023-05-01T09:53:38.472Z,40.34
2023-05-01T09:58:40.347Z,39.22
2023-05-01T10:03:43.580Z,39.42
2023-05-01T10:08:49.404Z,40.56
2023-05-01T10:14:10.221Z,39.42
2023-05-01T10:19:12.613Z,38.62
2023-05-01T10:24:16.315Z,38.56
2023-05-01T10:29:20.848Z,37.96
2023-05-01T10:34:26.372Z,36.67
2023-05-01T10:39:38.823Z,34.62
2023-05-01T10:44:41.877Z,35.97
2023-05-01T10:50:11.926Z,35.75
2023-05-01T10:55:32.757Z,34.98
2023-05-01T11:00:34.612Z,33.56
2023-05-01T11:06:01.243Z,35.86
2023-05-01T11:11:24.059Z,35.23
2023-05-01T11:16:38.068Z,34.10
2023-05-01T11:21:40.702Z,34.65
2023-05-01T11:26:43.047Z,35.50
2023-05-01T11:31:48.459Z,34.21
2023-05-01T11:36:51.650Z,33.01
2023-05-01T11:42:09.874Z,34.60
2023-05-01T11:47:11.383Z,31.54
2023-05-01T11:52:12.836Z,32.70
2023-05-01T11:57:14.247Z,33.86
2023-05-01T12:02:22.225Z,32.33
2023-05-01T12:07:23.886Z,31.07
2023-05-01T12:12:25.409Z,31.78
2023-05-01T12:17:28.352Z,32.89
2023-05-01T12:22:30.346Z,30.25
2023-05-01T12:27:32.957Z,31.73
2023-05-01T12:32:34.712Z,31.99
2023-05-01T12:37:36.371Z,31.08
2023-05-01T12:42:37.863Z,31.65
2023-05-01T12:47:39.456Z,34.45
2023-05-01T12:52:41.471Z,31.70
2023-05-01T12:57:53.823Z,32.02
2023-05-01T13:02:55.458Z,32.62
2023-05-01T13:07:57.215Z,32.71
2023-05-01T13:13:00.205Z,33.55
2023-05-01T13:18:05.647Z,33.56
2023-05-01T13:23:12.811Z,33.09
2023-05-01T13:28:19.585Z,33.14
2023-05-01T13:33:21.553Z,33.60
2023-05-01T13:38:25.011Z,34.56
2023-05-01T13:43:26.827Z,33.87
2023-05-01T13:48:30.474Z,33.86
2023-05-01T13:53:31.888Z,33.96
2023-05-01T13:58:33.937Z,34.70
2023-05-01T14:03:41.082Z,34.03
2023-05-01T14:08:43.303Z,32.72
2023-05-01T14:13:46.742Z,33.19
2023-05-01T14:18:48.435Z,33.63
2023-05-01T14:23:53.011Z,34.11
2023-05-01T14:28:54.944Z,32.63
2023-05-01T14:34:00.374Z,33.16
2023-05-01T14:39:03.905Z,33.14
2023-05-01T14:44:05.944Z,33.24
2023-05-01T14:49:07.377Z,32.38
2023-05-01T14:54:13.848Z,32.47
2023-05-01T14:59:16.004Z,32.99
2023-05-01T15:04:18.060Z,33.08
2023-05-01T15:09:19.627Z,33.58
2023-05-01T15:14:21.457Z,33.55
2023-05-01T15:19:22.970Z,33.80
2023-05-01T15:24:24.463Z,34.13
2023-05-01T15:29:25.860Z,33.85
2023-05-01T15:34:27.395Z,34.08
2023-05-01T15:39:29.395Z,34.90
2023-05-01T15:44:31.769Z,35.20
2023-05-01T15:49:33.206Z,35.84
2023-05-01T15:54:34.780Z,35.66
2023-05-01T15:59:39.627Z,35.81
2023-05-01T16:04:41.056Z,36.77
2023-05-01T16:09:42.500Z,36.87
2023-05-01T16:14:44.377Z,36.98
2023-05-01T16:19:46.586Z,37.41
2023-05-01T16:24:48.476Z,37.23
2023-05-01T16:29:50.111Z,37.99
2023-05-01T16:34:51.580Z,38.22
2023-05-01T16:39:53.024Z,38.72
2023-05-01T16:44:56.475Z,39.80
2023-05-01T16:49:59.983Z,39.50
2023-05-01T16:55:01.918Z,41.36
2023-05-01T17:00:05.175Z,41.70
2023-05-01T17:05:07.214Z,42.12
2023-05-01T17:10:09.060Z,41.97
2023-05-01T17:15:10.645Z,42.87
2023-05-01T17:20:12.570Z,43.25
2023-05-01T17:25:14.159Z,44.03
2023-05-01T17:30:18.353Z,44.47
2023-05-01T17:35:19.790Z,45.21
2023-05-01T17:40:21.214Z,45.92
2023-05-01T17:45:22.766Z,47.68
2023-05-01T17:50:24.890Z,48.68
2023-05-01T17:55:27.935Z,48.21
2023-05-01T18:00:31.438Z,48.83
2023-05-01T18:05:32.847Z,49.46
2023-05-01T18:10:34.314Z,50.67
2023-05-01T18:15:35.837Z,52.52
2023-05-01T18:20:37.294Z,51.55
2023-05-01T18:25:39.279Z,52.08
2023-05-01T18:30:40.910Z,52.10
2023-05-01T18:35:42.993Z,52.75
2023-05-01T18:40:44.450Z,53.12
2023-05-01T18:45:46.034Z,54.02
2023-05-01T18:50:57.314Z,53.65
2023-05-01T18:56:09.511Z,54.30
2023-05-01T19:01:12.495Z,54.65
2023-05-01T19:06:14.085Z,54.83
2023-05-01T19:11:15.790Z,55.55
2023-05-01T19:16:17.274Z,56.30
2023-05-01T19:21:19.548Z,56.16
2023-05-01T19:26:20.990Z,56.79
2023-05-01T19:31:22.546Z,57.27
2023-05-01T19:36:24.176Z,57.87
2023-05-01T19:41:25.826Z,60.44
2023-05-01T19:46:27.284Z,58.56
2023-05-01T19:51:28.782Z,60.14
2023-05-01T19:56:30.870Z,60.43
2023-05-01T20:01:32.563Z,60.02
2023-05-01T20:06:34.135Z,58.95
2023-05-01T20:11:35.614Z,58.77
2023-05-01T20:16:37.155Z,58.90
2023-05-01T20:21:38.584Z,58.18
2023-05-01T20:26:39.998Z,58.11
2023-05-01T20:31:41.494Z,57.97
2023-05-01T20:36:43.605Z,58.79
2023-05-01T20:41:45.104Z,59.22
2023-05-01T20:46:47.093Z,57.97
2023-05-01T20:51:49.022Z,57.75
2023-05-01T20:56:50.741Z,59.36
2023-05-01T21:01:52.262Z,59.11
2023-05-01T21:06:53.896Z,59.85
2023-05-01T21:11:55.417Z,59.01
2023-05-01T21:16:57.534Z,58.48
2023-05-01T21:21:58.966Z,58.46
2023-05-01T21:27:01.538Z,58.56
2023-05-01T21:32:04.167Z,58.53
2023-05-01T21:37:08.021Z,60.37
2023-05-01T21:42:09.473Z,60.44
2023-05-01T21:47:12.029Z,59.50
2023-05-01T21:52:14.855Z,59.71
2023-05-01T21:57:16.277Z,59.98
2023-05-01T22:02:18.318Z,61.39
2023-05-01T22:07:19.906Z,60.81
2023-05-01T22:12:21.368Z,61.43
2023-05-01T22:17:26.238Z,61.50
2023-05-01T22:22:27.679Z,63.22
2023-05-01T22:27:29.163Z,62.27
2023-05-01T22:32:30.679Z,62.25
2023-05-01T22:37:32.205Z,63.20
2023-05-01T22:42:33.680Z,63.13
2023-05-01T22:47:35.142Z,65.53
2023-05-01T22:52:36.612Z,65.36
2023-05-01T22:57:38.047Z,65.87
2023-05-01T23:02:39.794Z,64.69
2023-05-01T23:07:41.345Z,64.71
2023-05-01T23:12:44.396Z,65.55
2023-05-01T23:17:46.082Z,64.30
2023-05-01T23:22:48.093Z,64.33
2023-05-01T23:27:51.906Z,64.63
2023-05-01T23:32:57.992Z,64.71
2023-05-01T23:37:59.487Z,65.06
2023-05-01T23:43:00.943Z,65.17
2023-05-01T23:48:03.556Z,65.73
2023-05-01T23:53:07.585Z,65.66
2023-05-01T23:58:09.354Z,65.83
